Airfield :
LOGIN :

Register | Disclaimer

   EN    FR    IT 

 










Legend :    VFR   Marginal VFR   IFR   Intensive IFR   Very Intensive IFR
Visi :
Ceiling :
>= 8 km
>= 3000ft
5 to 8 km
1000 to 3000 ft
1500m to 5 km
500 to 1000 ft
800 to 1500m
200 to 500 ft
< 800m
< 200 ft
Symbols :   Thunderstorms  Fog  Heavy snow  Heavy precipitations  Wind > 20 kt
SIGMETs :     Misc.  Thunderstorms  Icing  Turbulence  Mountain Waves  Volcanic Ashes






- Airport Elevation : 978 ft
- IATA code : LNZ


LOWL - Linz

CURRENT METAR :
  • 250120Z AUTO 07008KT 9999 NCD 17/11 Q1017

EXPIRED METARs :
  • 250050Z AUTO 06007KT 9999 NCD 17/11 Q1017
  • 250020Z AUTO 07009KT 9999 NCD 18/12 Q1017
  • 242350Z AUTO 07009KT 9999 NCD 18/12 Q1017
  • 242320Z AUTO 08008KT 9999 NCD 18/12 Q1018
  • 242250Z AUTO 07008KT 9999 NCD 18/13 Q1018
  • 242150Z AUTO 09006KT 9999 NCD 19/13 Q1018
  • 242120Z AUTO 09006KT 9999 NCD 19/13 Q1018
  • 242050Z AUTO 10005KT 070V130 9999 NCD 20/13 Q1018

TAF TAF LOWL
Valid from the 25 at 00:00 until the 26 at 00:00 UTC


242315Z 2500/2524 09010KT CAVOK TX26/2515Z TN16/2503Z



MET'MAP, your aeronautical weather chart ! - Copyright ORBIFLY December 2007 - Disclaimer

ORBIFLY MET'MAP TEAM :

Programming & Development : Alexandra Zaïnal
Original concept : Baudouin d'Aumeries
Technical & hardware support : Manuel Goepfert
Assistance : Marc-Olivier Méhu




SOURCES & CREDITS :

   NOAA